createdAt,value
2023-04-02T16:05:01.587Z,75.46
2023-04-02T16:10:01.553Z,76.07
2023-04-02T16:15:01.489Z,74.12
2023-04-02T16:20:02.421Z,75.46
2023-04-02T16:25:01.358Z,74.84
2023-04-02T16:30:01.310Z,74.67
2023-04-02T16:35:15.221Z,75.53
2023-04-02T16:40:02.232Z,75.73
2023-04-02T16:45:01.034Z,74.22
2023-04-02T16:50:01.902Z,75.77
2023-04-02T16:55:00.996Z,75.05
2023-04-02T17:00:00.858Z,75.18
2023-04-02T17:05:00.828Z,74.88
2023-04-02T17:10:00.763Z,74.71
2023-04-02T17:15:00.708Z,75.95
2023-04-02T17:20:00.661Z,74.63
2023-04-02T17:25:00.545Z,75.46
2023-04-02T17:30:00.665Z,73.85
2023-04-02T17:35:00.416Z,74.15
2023-04-02T17:40:00.396Z,74.88
2023-04-02T17:45:00.265Z,74.15
2023-04-02T17:50:00.228Z,73.77
2023-04-02T17:55:00.164Z,74.29
2023-04-02T18:00:00.202Z,73.77
2023-04-02T18:05:00.017Z,72.33
2023-04-02T18:09:59.973Z,73.91
2023-04-02T18:14:59.887Z,73.19
2023-04-02T18:19:59.853Z,72.98
2023-04-02T18:24:59.782Z,72.67
2023-04-02T18:29:59.708Z,71.95
2023-04-02T18:34:59.630Z,73.08
2023-04-02T18:39:59.557Z,72.88
2023-04-02T18:44:59.533Z,74.22
2023-04-02T18:49:59.442Z,73.91
2023-04-02T18:54:59.396Z,73.50
2023-04-02T18:59:59.345Z,73.77
2023-04-02T19:04:59.264Z,73.81
2023-04-02T19:09:59.195Z,76.05
2023-04-02T19:14:59.095Z,72.05
2023-04-02T19:19:59.038Z,71.71
2023-04-02T19:24:59.025Z,72.57
2023-04-02T19:29:58.913Z,71.84
2023-04-02T19:34:58.895Z,70.78
2023-04-02T19:39:58.808Z,71.09
2023-04-02T19:44:58.712Z,72.43
2023-04-02T19:49:58.698Z,72.74
2023-04-02T19:54:58.580Z,71.92
2023-04-02T19:59:58.542Z,71.50
2023-04-02T20:04:58.439Z,71.71
2023-04-02T20:09:59.376Z,70.81
2023-04-02T20:14:58.335Z,71.33
2023-04-02T20:19:58.259Z,72.16
2023-04-02T20:24:58.174Z,70.71
2023-04-02T20:29:58.122Z,71.74
2023-04-02T20:34:58.034Z,70.19
2023-04-02T20:39:57.989Z,70.81
2023-04-02T20:44:57.939Z,71.02
2023-04-02T20:49:57.922Z,70.09
2023-04-02T20:54:57.800Z,70.32
2023-04-02T20:59:57.730Z,70.71
2023-04-02T21:04:57.690Z,70.53
2023-04-02T21:09:57.751Z,71.36
2023-04-02T21:14:57.869Z,69.71
2023-04-02T21:19:57.476Z,69.40
2023-04-02T21:24:57.389Z,69.84
2023-04-02T21:29:57.356Z,69.95
2023-04-02T21:34:57.394Z,69.95
2023-04-02T21:39:57.218Z,69.95
2023-04-02T21:44:57.120Z,72.33
2023-04-02T21:49:57.082Z,74.50
2023-04-02T21:54:56.980Z,72.36
2023-04-02T21:59:57.913Z,74.12
2023-04-02T22:04:56.864Z,76.02
2023-04-02T22:09:56.803Z,77.19
2023-04-02T22:14:56.759Z,80.40
2023-04-02T22:19:56.712Z,81.06
2023-04-02T22:24:56.609Z,80.06
2023-04-02T22:29:56.528Z,81.14
2023-04-02T22:34:56.457Z,80.76
2023-04-02T22:39:56.379Z,82.21
2023-04-02T22:44:56.484Z,81.18
2023-04-02T22:49:56.276Z,81.28
2023-04-02T22:54:56.202Z,82.01
2023-04-02T22:59:56.144Z,81.59
2023-04-02T23:04:56.082Z,83.25
2023-04-02T23:09:56.905Z,82.21
2023-04-02T23:14:55.968Z,82.28
2023-04-02T23:19:55.887Z,82.18
2023-04-02T23:24:56.591Z,83.42
2023-04-02T23:29:55.764Z,84.15
2023-04-02T23:34:55.681Z,82.34
2023-04-02T23:39:55.607Z,81.72
2023-04-02T23:44:55.563Z,82.65
2023-04-02T23:49:55.492Z,79.65
2023-04-02T23:54:55.382Z,83.45
2023-04-02T23:59:55.381Z,82.72
